Time;durP1;ratioP1;P1;durP2;ratioP2;P2;SDS_P1;SDS_P2;PMS_P1;PMS_P2;Temp;Humidity;BMP_temperature;BMP_pressure;BME280_temperature;BME280_humidity;BME280_pressure;Samples;Min_cycle;Max_cycle;Signal;HPM_P1;HPM_P2
2022/04/25 00:02:16;;;;;;;15.30;7.37;;;7.70;73.30;;;;;;5044432;28;20056;-68
2022/04/25 00:04:41;;;;;;;19.63;7.50;;;7.60;73.40;;;;;;5046756;28;20408;-68
2022/04/25 00:07:07;;;;;;;18.03;7.93;;;7.60;73.40;;;;;;5022117;28;20055;-68
2022/04/25 00:09:33;;;;;;;13.80;7.70;;;7.60;73.80;;;;;;5040269;28;20489;-68
2022/04/25 00:11:59;;;;;;;17.23;7.87;;;7.70;73.90;;;;;;5049401;28;20535;-68
2022/04/25 00:14:25;;;;;;;15.02;8.15;;;7.80;73.60;;;;;;5014115;28;20175;-68
2022/04/25 00:16:55;;;;;;;13.73;8.23;;;7.80;73.60;;;;;;5025227;28;20030;-68
2022/04/25 00:19:22;;;;;;;15.45;7.60;;;7.90;73.80;;;;;;5030828;28;20413;-68
2022/04/25 00:21:48;;;;;;;15.93;8.30;;;7.90;73.60;;;;;;5038101;28;20120;-68
2022/04/25 00:24:13;;;;;;;19.20;8.00;;;8.00;73.50;;;;;;5022537;28;20454;-68
2022/04/25 00:26:39;;;;;;;17.33;7.97;;;8.00;73.40;;;;;;5006484;28;20604;-68
2022/04/25 00:29:04;;;;;;;17.00;8.20;;;8.00;73.70;;;;;;5030982;28;20051;-68
2022/04/25 00:31:30;;;;;;;15.00;7.73;;;8.10;73.80;;;;;;5015302;28;20134;-68
2022/04/25 00:33:56;;;;;;;13.90;7.10;;;8.10;73.60;;;;;;5032718;28;20060;-68
2022/04/25 00:36:21;;;;;;;12.27;6.23;;;8.10;73.70;;;;;;5016067;28;20037;-68
2022/04/25 00:38:47;;;;;;;12.03;6.13;;;8.20;73.60;;;;;;5048023;28;20040;-68
2022/04/25 00:41:13;;;;;;;16.20;6.90;;;8.20;73.30;;;;;;5037159;28;20091;-68
2022/04/25 00:43:38;;;;;;;15.47;6.93;;;8.30;73.40;;;;;;5010302;28;20049;-68
2022/04/25 00:46:05;;;;;;;15.93;6.53;;;8.30;73.30;;;;;;5046825;28;20581;-68
2022/04/25 00:48:30;;;;;;;14.32;6.40;;;8.30;73.10;;;;;;5036722;28;20570;-68
2022/04/25 00:50:56;;;;;;;14.47;6.53;;;8.30;72.90;;;;;;5029090;28;20044;-68
2022/04/25 00:53:22;;;;;;;17.20;6.33;;;8.30;73.00;;;;;;5028370;28;20457;-68
2022/04/25 00:55:48;;;;;;;12.87;6.23;;;8.30;72.80;;;;;;5026442;28;20045;-68
2022/04/25 00:58:14;;;;;;;12.07;6.32;;;8.40;72.80;;;;;;5041759;28;20393;-68
2022/04/25 01:00:40;;;;;;;16.13;6.75;;;8.30;72.90;;;;;;5029230;28;20048;-68
2022/04/25 01:03:06;;;;;;;13.50;5.90;;;8.20;72.90;;;;;;5015260;28;20045;-68
2022/04/25 01:05:32;;;;;;;11.07;6.50;;;8.10;72.90;;;;;;5045263;28;20041;-68
2022/04/25 01:07:59;;;;;;;11.80;6.30;;;8.10;72.90;;;;;;5038880;28;20040;-68
2022/04/25 01:10:25;;;;;;;12.57;6.10;;;8.00;73.10;;;;;;5016727;28;20053;-68
2022/04/25 01:12:50;;;;;;;14.63;6.90;;;7.90;73.10;;;;;;5029567;28;20494;-68
2022/04/25 01:15:16;;;;;;;12.40;6.80;;;7.90;73.50;;;;;;5053853;28;20044;-68
2022/04/25 01:17:42;;;;;;;11.47;6.00;;;7.90;73.70;;;;;;5027907;28;20506;-68
2022/04/25 01:20:09;;;;;;;10.87;6.37;;;7.90;73.60;;;;;;5029354;28;20056;-68
2022/04/25 01:22:51;;;;;;;14.07;6.30;;;7.90;73.50;;;;;;5032854;28;20080;-68
2022/04/25 01:28:02;;;;;;;14.73;7.22;;;7.90;73.40;;;;;;5040767;28;20049;-68
2022/04/25 01:30:31;;;;;;;14.93;7.25;;;7.90;73.30;;;;;;5025091;28;20049;-68
2022/04/25 01:32:58;;;;;;;14.90;8.75;;;7.90;73.30;;;;;;5032862;28;20045;-68
2022/04/25 01:35:24;;;;;;;12.98;7.95;;;7.90;73.10;;;;;;5044992;28;20200;-68
2022/04/25 01:37:50;;;;;;;12.70;8.07;;;7.90;73.10;;;;;;5048071;28;20037;-68
2022/04/25 01:40:15;;;;;;;17.57;9.33;;;7.90;72.80;;;;;;5017074;28;20434;-68
2022/04/25 01:42:42;;;;;;;15.90;8.97;;;7.90;72.70;;;;;;5025893;28;20049;-68
2022/04/25 01:45:08;;;;;;;16.70;8.40;;;7.90;72.60;;;;;;5029754;28;20118;-68
2022/04/25 01:47:34;;;;;;;17.13;8.23;;;7.90;72.40;;;;;;5019532;28;20056;-68
2022/04/25 01:49:59;;;;;;;16.97;8.50;;;7.80;72.60;;;;;;5021118;28;20047;-68
2022/04/25 01:52:31;;;;;;;13.30;7.93;;;7.80;72.40;;;;;;5037856;28;20195;-67
2022/04/25 01:54:58;;;;;;;14.82;8.35;;;7.80;72.40;;;;;;5042113;28;20053;-68
2022/04/25 01:57:23;;;;;;;12.50;8.63;;;7.80;72.30;;;;;;5024725;28;20094;-68
2022/04/25 01:59:51;;;;;;;13.20;8.07;;;7.80;72.20;;;;;;5039859;28;20572;-68
2022/04/25 02:02:17;;;;;;;14.63;8.05;;;7.80;72.30;;;;;;5015900;28;20071;-68
2022/04/25 02:04:43;;;;;;;13.88;7.82;;;7.80;72.50;;;;;;5023986;28;20497;-68
2022/04/25 02:07:10;;;;;;;13.40;8.00;;;7.80;72.50;;;;;;5041308;28;20039;-68
2022/04/25 02:09:37;;;;;;;12.93;8.10;;;7.80;72.40;;;;;;5041750;28;20147;-68
2022/04/25 02:12:04;;;;;;;12.13;7.53;;;7.70;72.40;;;;;;5040620;28;20048;-68
2022/04/25 02:14:30;;;;;;;14.75;7.40;;;7.70;72.50;;;;;;5038168;28;20041;-68
2022/04/25 02:16:58;;;;;;;14.47;7.73;;;7.70;72.60;;;;;;5021669;28;20048;-68
2022/04/25 02:19:28;;;;;;;12.63;7.28;;;7.70;72.40;;;;;;5041311;28;20056;-68
2022/04/25 02:21:54;;;;;;;15.65;7.45;;;7.70;72.40;;;;;;5038872;28;20536;-68
2022/04/25 02:24:20;;;;;;;15.77;7.35;;;7.70;72.40;;;;;;5022886;28;20045;-68
2022/04/25 02:26:50;;;;;;;17.42;8.07;;;7.60;72.30;;;;;;5041754;28;20434;-68
2022/04/25 02:29:18;;;;;;;13.80;6.57;;;7.60;72.40;;;;;;5022711;28;20072;-68
2022/04/25 02:31:44;;;;;;;15.93;7.05;;;7.50;72.50;;;;;;5039987;28;20132;-68
2022/04/25 02:34:10;;;;;;;10.20;6.37;;;7.50;72.50;;;;;;5031017;28;20136;-68
2022/04/25 02:36:36;;;;;;;15.20;7.30;;;7.50;72.80;;;;;;5038834;28;20288;-68
2022/04/25 02:39:03;;;;;;;11.55;7.25;;;7.40;72.70;;;;;;5040305;28;20485;-68
2022/04/25 02:41:29;;;;;;;15.35;7.10;;;7.40;72.60;;;;;;5056194;28;20044;-68
2022/04/25 02:43:54;;;;;;;14.80;7.60;;;7.30;72.60;;;;;;5038936;28;20109;-68
2022/04/25 02:46:20;;;;;;;11.83;7.37;;;7.20;72.80;;;;;;5023515;28;20498;-68
2022/04/25 02:48:47;;;;;;;13.43;7.40;;;7.10;72.70;;;;;;5038138;28;20032;-67
2022/04/25 02:51:14;;;;;;;14.55;7.60;;;7.10;72.70;;;;;;5021243;28;20453;-68
2022/04/25 02:53:40;;;;;;;12.48;6.85;;;7.00;72.90;;;;;;5041340;28;20056;-68
2022/04/25 02:56:06;;;;;;;12.50;6.83;;;7.00;73.00;;;;;;5038479;28;20561;-68
2022/04/25 02:58:34;;;;;;;13.50;7.32;;;6.90;73.10;;;;;;5018701;28;20068;-68
2022/04/25 03:01:00;;;;;;;13.60;7.35;;;6.90;72.90;;;;;;5055844;28;20029;-68
2022/04/25 03:03:26;;;;;;;12.80;6.87;;;6.90;73.10;;;;;;5040488;28;20044;-68
2022/04/25 03:05:53;;;;;;;11.70;6.93;;;6.80;73.00;;;;;;5041400;28;20041;-68
2022/04/25 03:08:21;;;;;;;13.25;7.97;;;6.80;73.40;;;;;;5024595;28;20045;-68
2022/04/25 03:10:48;;;;;;;12.13;7.32;;;6.70;73.50;;;;;;5041697;28;20110;-68
2022/04/25 03:13:15;;;;;;;16.15;7.70;;;6.70;73.40;;;;;;5040512;28;20470;-68
2022/04/25 03:15:42;;;;;;;11.55;7.38;;;6.70;73.50;;;;;;5035924;28;20090;-68
2022/04/25 03:18:12;;;;;;;15.43;7.55;;;6.60;73.50;;;;;;5024206;28;20045;-68
2022/04/25 03:20:41;;;;;;;10.70;6.93;;;6.60;73.60;;;;;;5027548;28;20085;-68
2022/04/25 03:23:07;;;;;;;14.10;7.38;;;6.60;73.50;;;;;;5038235;28;20118;-68
2022/04/25 03:25:34;;;;;;;13.05;7.47;;;6.60;73.50;;;;;;5040745;28;20046;-68
2022/04/25 03:28:00;;;;;;;14.05;7.40;;;6.60;73.40;;;;;;5028909;28;20497;-68
2022/04/25 03:30:27;;;;;;;13.30;7.50;;;6.50;73.40;;;;;;5040263;28;20036;-68
2022/04/25 03:32:53;;;;;;;13.88;7.60;;;6.50;73.60;;;;;;5016822;28;20803;-68
2022/04/25 03:35:22;;;;;;;11.50;7.22;;;6.40;73.60;;;;;;5007507;28;20038;-68
2022/04/25 03:37:49;;;;;;;13.95;7.45;;;6.40;73.70;;;;;;5040847;28;21314;-68
2022/04/25 03:40:15;;;;;;;14.27;7.20;;;6.40;73.70;;;;;;5020600;28;20875;-67
2022/04/25 03:42:44;;;;;;;12.65;7.43;;;6.30;74.00;;;;;;5035834;28;20731;-67
2022/04/25 03:45:11;;;;;;;12.30;6.80;;;6.30;73.80;;;;;;5017852;28;20091;-67
2022/04/25 03:47:38;;;;;;;10.30;7.22;;;6.20;74.00;;;;;;5024757;28;20420;-68
2022/04/25 03:50:07;;;;;;;13.45;6.65;;;6.20;74.10;;;;;;5039962;28;20107;-67
2022/04/25 03:52:34;;;;;;;13.05;7.03;;;6.10;74.20;;;;;;5038361;28;20041;-67
2022/04/25 03:57:46;;;;;;;11.07;6.47;;;6.10;74.30;;;;;;5025681;28;20051;-68
2022/04/25 04:00:12;;;;;;;13.63;6.85;;;6.10;74.40;;;;;;5022345;28;20029;-68
2022/04/25 04:02:38;;;;;;;10.80;7.15;;;6.10;74.40;;;;;;4997371;28;20041;-67
2022/04/25 04:05:05;;;;;;;11.83;7.63;;;6.10;74.50;;;;;;5040068;28;20552;-68
2022/04/25 04:07:32;;;;;;;12.88;6.95;;;6.00;74.40;;;;;;5021284;28;20061;-67
2022/04/25 04:09:58;;;;;;;13.85;7.47;;;6.00;74.70;;;;;;5042049;28;20041;-68
2022/04/25 04:12:28;;;;;;;15.10;7.53;;;6.00;74.60;;;;;;5042262;28;20056;-68
2022/04/25 04:14:53;;;;;;;11.25;7.20;;;5.90;74.80;;;;;;5023327;28;20033;-68
2022/04/25 04:17:19;;;;;;;14.47;7.80;;;5.90;74.90;;;;;;5027131;28;20044;-67
2022/04/25 04:19:46;;;;;;;11.93;7.50;;;5.90;75.10;;;;;;5041849;28;20074;-68
2022/04/25 04:22:12;;;;;;;12.85;7.15;;;5.90;75.30;;;;;;5017017;28;20044;-68
2022/04/25 04:24:38;;;;;;;13.57;7.17;;;6.00;75.40;;;;;;5029117;28;20070;-67
2022/04/25 04:27:05;;;;;;;12.53;7.60;;;6.10;75.30;;;;;;5030480;28;20374;-67
2022/04/25 04:29:32;;;;;;;15.68;8.77;;;6.20;75.20;;;;;;5041487;28;20055;-67
2022/04/25 04:32:01;;;;;;;14.38;7.65;;;6.30;75.40;;;;;;5025524;28;20561;-67
2022/04/25 04:34:27;;;;;;;15.77;7.95;;;6.50;75.10;;;;;;5047161;28;20048;-67
2022/04/25 04:36:53;;;;;;;14.02;7.82;;;6.60;75.00;;;;;;5045340;28;20193;-67
2022/04/25 04:39:19;;;;;;;14.43;8.17;;;6.70;74.80;;;;;;5035959;28;20052;-67
2022/04/25 04:41:45;;;;;;;16.08;8.40;;;6.80;74.70;;;;;;5028862;28;20053;-67
2022/04/25 04:44:11;;;;;;;12.88;8.13;;;6.90;74.60;;;;;;5029770;28;20864;-68
2022/04/25 04:46:37;;;;;;;16.88;8.77;;;7.00;74.50;;;;;;5043930;28;20120;-68
2022/04/25 04:49:03;;;;;;;12.13;7.60;;;7.10;74.20;;;;;;5047880;28;20142;-68
2022/04/25 04:51:28;;;;;;;13.57;7.60;;;7.20;73.70;;;;;;5029760;28;20041;-68
2022/04/25 04:53:54;;;;;;;14.60;8.40;;;7.30;73.70;;;;;;5025166;28;20028;-68
2022/04/25 04:56:20;;;;;;;14.27;8.43;;;7.30;73.50;;;;;;5014885;28;20072;-68
2022/04/25 04:58:45;;;;;;;15.17;8.10;;;7.40;73.40;;;;;;5046191;28;20135;-68
2022/04/25 05:01:12;;;;;;;13.83;7.53;;;7.40;73.30;;;;;;5029424;28;20041;-68
2022/04/25 05:03:41;;;;;;;13.15;7.10;;;7.50;73.20;;;;;;5030743;28;20062;-68
2022/04/25 05:06:07;;;;;;;12.13;7.68;;;7.60;72.90;;;;;;5046644;28;20052;-68
2022/04/25 05:08:33;;;;;;;12.77;7.00;;;7.60;72.50;;;;;;5014358;28;20408;-68
2022/04/25 05:10:59;;;;;;;13.77;7.43;;;7.70;72.50;;;;;;5012665;28;20094;-68
2022/04/25 05:13:25;;;;;;;10.65;6.70;;;7.70;72.00;;;;;;5042474;28;20045;-68
2022/04/25 05:15:51;;;;;;;15.77;7.60;;;7.70;71.70;;;;;;5037463;28;20037;-67
2022/04/25 05:18:17;;;;;;;11.47;7.83;;;7.70;71.80;;;;;;5030333;28;20404;-67
2022/04/25 05:20:42;;;;;;;11.43;7.10;;;7.70;72.00;;;;;;5022029;28;20083;-67
2022/04/25 05:23:10;;;;;;;13.67;7.70;;;7.80;71.90;;;;;;5014736;28;20040;-68
2022/04/25 05:25:38;;;;;;;14.15;7.68;;;7.70;72.00;;;;;;5028314;28;20048;-68
2022/04/25 05:28:05;;;;;;;14.02;7.57;;;7.80;71.70;;;;;;5041690;28;20049;-67
2022/04/25 05:30:32;;;;;;;15.48;7.90;;;7.80;71.80;;;;;;5043859;28;20195;-68
2022/04/25 05:33:02;;;;;;;12.85;7.63;;;7.80;71.70;;;;;;5029682;28;20079;-67
2022/04/25 05:35:33;;;;;;;13.57;7.10;;;7.80;71.90;;;;;;5046072;28;20106;-68
2022/04/25 05:37:59;;;;;;;10.95;7.03;;;7.80;71.90;;;;;;5028930;28;20555;-68
2022/04/25 05:40:25;;;;;;;13.73;7.53;;;7.80;71.70;;;;;;5028436;28;20048;-67
2022/04/25 05:42:53;;;;;;;14.73;7.80;;;7.80;71.30;;;;;;5046062;28;20040;-67
2022/04/25 05:45:21;;;;;;;12.45;7.40;;;7.80;71.10;;;;;;5028108;28;20037;-68
2022/04/25 05:47:47;;;;;;;14.32;7.70;;;7.80;71.00;;;;;;5043626;28;20075;-67
2022/04/25 05:53:02;;;;;;;9.57;7.18;;;7.80;71.40;;;;;;5023034;28;20063;-68
2022/04/25 05:55:28;;;;;;;12.23;7.68;;;7.90;70.90;;;;;;5041794;28;20111;-67
2022/04/25 05:57:55;;;;;;;15.30;7.75;;;8.00;70.60;;;;;;5028599;28;20125;-67
2022/04/25 06:00:21;;;;;;;11.95;7.80;;;8.00;70.40;;;;;;5029509;28;20079;-67
2022/04/25 06:02:47;;;;;;;12.77;7.73;;;7.90;70.40;;;;;;5012034;28;20141;-68
2022/04/25 06:05:15;;;;;;;12.67;7.87;;;7.90;70.60;;;;;;5044990;28;20287;-68
2022/04/25 06:07:42;;;;;;;13.10;7.32;;;8.00;70.50;;;;;;5017942;28;20140;-68
2022/04/25 06:10:09;;;;;;;12.80;7.68;;;8.00;70.40;;;;;;5029312;28;20040;-67
2022/04/25 06:12:48;;;;;;;16.40;8.27;;;7.90;70.60;;;;;;5042951;28;20075;-68
2022/04/25 06:15:16;;;;;;;11.02;7.88;;;7.90;70.60;;;;;;5042068;28;20119;-68
2022/04/25 06:17:42;;;;;;;13.02;7.93;;;7.90;70.70;;;;;;5035397;28;20048;-68
2022/04/25 06:20:09;;;;;;;12.10;8.18;;;7.90;70.90;;;;;;5022789;28;20068;-68
2022/04/25 06:22:37;;;;;;;12.90;8.23;;;7.90;71.10;;;;;;5011441;28;20525;-68
2022/04/25 06:25:04;;;;;;;11.48;8.07;;;8.00;70.70;;;;;;5027155;28;20040;-68
2022/04/25 06:27:30;;;;;;;11.13;7.85;;;8.00;70.60;;;;;;5025603;28;20032;-68
2022/04/25 06:29:56;;;;;;;17.20;8.33;;;8.10;70.30;;;;;;5042318;28;20086;-68
2022/04/25 06:32:23;;;;;;;13.35;8.13;;;8.10;70.20;;;;;;5045092;28;20049;-68
2022/04/25 06:34:49;;;;;;;12.35;8.25;;;8.20;70.10;;;;;;5027571;28;20520;-68
2022/04/25 06:37:15;;;;;;;13.63;8.13;;;8.20;69.80;;;;;;5043332;28;20040;-68
2022/04/25 06:39:41;;;;;;;12.32;7.65;;;8.30;69.60;;;;;;5042502;28;20041;-68
2022/04/25 06:42:08;;;;;;;11.90;7.60;;;8.30;69.40;;;;;;5045620;28;20124;-68
2022/04/25 06:44:34;;;;;;;12.43;7.07;;;8.40;69.50;;;;;;5043566;28;20333;-68
2022/04/25 06:47:00;;;;;;;10.90;7.25;;;8.40;69.40;;;;;;5042988;28;20050;-68
2022/04/25 06:49:27;;;;;;;12.10;7.63;;;8.40;69.30;;;;;;5042289;28;20110;-68
2022/04/25 06:51:59;;;;;;;13.52;7.97;;;8.40;69.40;;;;;;5041354;28;20051;-68
2022/04/25 06:54:27;;;;;;;11.68;7.55;;;8.40;69.30;;;;;;5026041;28;20102;-68
2022/04/25 06:56:54;;;;;;;11.38;7.80;;;8.40;68.90;;;;;;5041659;28;20032;-68
2022/04/25 06:59:21;;;;;;;10.48;6.95;;;8.30;68.60;;;;;;5042306;28;20044;-68
2022/04/25 07:01:48;;;;;;;11.85;8.05;;;8.30;68.80;;;;;;5011159;28;20083;-69
2022/04/25 07:04:15;;;;;;;11.15;7.22;;;8.30;68.90;;;;;;5027602;28;20078;-68
2022/04/25 07:06:41;;;;;;;13.02;7.07;;;8.30;68.90;;;;;;5041751;28;20079;-68
2022/04/25 07:09:07;;;;;;;11.20;7.82;;;8.50;69.10;;;;;;5024026;28;20146;-69
2022/04/25 07:11:34;;;;;;;10.50;6.78;;;8.50;69.30;;;;;;5041002;28;20259;-69
2022/04/25 07:14:02;;;;;;;13.75;7.30;;;8.60;68.40;;;;;;5043698;28;20075;-69
2022/04/25 07:16:29;;;;;;;11.73;7.60;;;8.70;68.30;;;;;;5010857;28;20033;-68
2022/04/25 07:18:55;;;;;;;12.55;7.45;;;8.70;68.10;;;;;;5027939;28;20062;-69
2022/04/25 07:29:33;;;;;;;11.73;7.32;;;8.70;67.80;;;;;;5043337;28;20036;-69
2022/04/25 07:31:59;;;;;;;14.33;7.07;;;8.80;67.60;;;;;;5029750;28;20037;-69
2022/04/25 07:34:25;;;;;;;10.70;6.63;;;8.90;68.20;;;;;;5035985;28;20051;-69
2022/04/25 07:36:53;;;;;;;12.43;6.93;;;9.10;67.90;;;;;;5009694;28;20048;-68
2022/04/25 07:39:22;;;;;;;14.18;7.00;;;9.10;67.30;;;;;;5020165;28;20045;-68
2022/04/25 07:41:50;;;;;;;13.93;6.95;;;9.20;67.00;;;;;;5024732;28;20041;-69
2022/04/25 07:44:16;;;;;;;10.85;6.25;;;9.30;67.20;;;;;;5039936;28;20090;-69
2022/04/25 07:46:42;;;;;;;8.77;6.22;;;9.40;67.20;;;;;;5039360;28;20212;-69
2022/04/25 07:49:09;;;;;;;8.25;5.82;;;9.50;66.80;;;;;;5037223;28;20496;-69
2022/04/25 07:51:36;;;;;;;12.23;6.65;;;9.60;66.30;;;;;;5049341;28;20044;-69
2022/04/25 07:54:04;;;;;;;9.40;5.95;;;9.70;66.00;;;;;;5024994;28;20033;-69
2022/04/25 07:56:32;;;;;;;11.90;6.47;;;9.90;65.70;;;;;;5030842;28;20060;-69
2022/04/25 07:59:00;;;;;;;9.95;5.63;;;10.00;65.50;;;;;;5026504;28;20416;-68
2022/04/25 08:01:29;;;;;;;9.65;5.65;;;10.00;64.40;;;;;;5015672;28;20497;-68
2022/04/25 08:03:55;;;;;;;7.57;5.50;;;10.00;64.80;;;;;;5029796;28;20036;-68
2022/04/25 08:06:22;;;;;;;10.27;5.05;;;9.90;63.50;;;;;;5047083;28;20497;-68
2022/04/25 08:08:52;;;;;;;9.95;5.40;;;9.80;63.60;;;;;;5043650;28;20115;-68
2022/04/25 08:11:18;;;;;;;8.13;4.90;;;9.80;64.40;;;;;;5043213;28;20055;-69
2022/04/25 08:19:15;;;;;;;11.82;5.05;;;10.00;63.90;;;;;;5030756;28;20045;-69
2022/04/25 08:21:42;;;;;;;8.98;5.40;;;10.00;64.20;;;;;;5042903;28;20102;-69
2022/04/25 08:24:09;;;;;;;9.63;6.00;;;10.00;64.00;;;;;;5043490;28;20630;-69
2022/04/25 08:26:35;;;;;;;10.45;6.03;;;10.00;64.00;;;;;;5011864;28;20128;-69
2022/04/25 08:29:01;;;;;;;14.37;6.43;;;10.00;63.80;;;;;;5014803;28;20115;-69
2022/04/25 08:31:27;;;;;;;8.50;5.97;;;10.00;64.50;;;;;;5033331;28;20113;-69
2022/04/25 08:33:54;;;;;;;9.18;5.65;;;10.10;64.20;;;;;;5023999;28;20037;-69
2022/04/25 08:36:19;;;;;;;12.88;6.78;;;10.10;64.30;;;;;;5010128;28;20431;-69
2022/04/25 08:38:46;;;;;;;12.33;6.40;;;10.10;64.00;;;;;;5045820;28;20032;-69
2022/04/25 08:41:14;;;;;;;11.52;5.68;;;10.10;64.20;;;;;;5031413;28;21042;-69
2022/04/25 08:43:41;;;;;;;13.20;6.55;;;10.10;64.50;;;;;;5044893;28;20125;-69
2022/04/25 08:46:09;;;;;;;11.07;6.47;;;10.10;64.70;;;;;;5031315;28;20040;-69
2022/04/25 08:48:39;;;;;;;11.20;6.03;;;10.20;64.70;;;;;;5044409;28;20068;-69
2022/04/25 08:51:05;;;;;;;10.98;6.60;;;10.20;64.50;;;;;;5051663;28;20036;-69
2022/04/25 08:53:34;;;;;;;12.52;6.65;;;10.30;64.00;;;;;;5049730;28;20048;-69
2022/04/25 08:56:03;;;;;;;9.18;6.32;;;10.30;64.50;;;;;;5047428;28;20198;-69
2022/04/25 08:58:31;;;;;;;12.55;6.43;;;10.40;64.60;;;;;;5031172;28;20045;-69
2022/04/25 09:00:58;;;;;;;11.93;6.35;;;10.40;64.50;;;;;;5018184;28;20133;-69
2022/04/25 09:03:24;;;;;;;10.25;5.28;;;10.60;64.40;;;;;;5031816;28;20040;-69
2022/04/25 09:05:51;;;;;;;8.57;5.75;;;10.80;63.60;;;;;;5030414;28;20048;-69
2022/04/25 09:08:17;;;;;;;9.35;5.90;;;10.90;62.70;;;;;;5045826;28;20048;-69
2022/04/25 09:10:44;;;;;;;7.63;5.20;;;10.90;62.20;;;;;;5044352;28;20037;-69
2022/04/25 09:13:11;;;;;;;8.05;5.47;;;11.00;61.80;;;;;;5045377;28;20106;-69
2022/04/25 09:15:37;;;;;;;12.50;5.43;;;11.00;62.60;;;;;;5042469;28;20045;-69
2022/04/25 09:18:03;;;;;;;8.05;4.72;;;11.10;62.50;;;;;;5045889;28;20051;-69
2022/04/25 09:20:29;;;;;;;11.10;4.70;;;11.20;62.30;;;;;;5012388;28;20049;-69
2022/04/25 09:22:56;;;;;;;7.63;4.60;;;11.40;61.80;;;;;;5031674;28;20510;-69
2022/04/25 09:25:22;;;;;;;7.38;4.32;;;11.50;61.40;;;;;;5019884;28;20080;-69
2022/04/25 09:27:48;;;;;;;9.17;4.40;;;11.60;61.00;;;;;;5050424;28;20170;-69
2022/04/25 09:30:20;;;;;;;8.02;4.65;;;11.60;60.30;;;;;;5031299;28;20440;-69
2022/04/25 09:32:48;;;;;;;6.50;4.38;;;11.60;60.10;;;;;;5050350;28;20080;-67
2022/04/25 09:35:35;;;;;;;8.85;4.57;;;11.70;60.70;;;;;;5039315;28;20048;-67
2022/04/25 09:38:03;;;;;;;8.90;4.28;;;11.70;60.40;;;;;;5046814;28;20033;-67
2022/04/25 09:40:33;;;;;;;7.03;4.22;;;11.70;60.00;;;;;;5030862;28;20062;-67
2022/04/25 09:43:05;;;;;;;8.10;4.22;;;11.70;59.80;;;;;;5037031;28;20329;-67
2022/04/25 09:45:35;;;;;;;8.25;4.10;;;11.70;60.00;;;;;;5029326;28;20072;-67
2022/04/25 09:48:01;;;;;;;6.80;4.30;;;11.60;60.10;;;;;;5050024;28;20094;-67
2022/04/25 09:50:30;;;;;;;7.77;4.00;;;11.60;60.40;;;;;;5033505;28;20091;-67
2022/04/25 09:53:03;;;;;;;8.70;4.40;;;11.60;60.50;;;;;;5003948;28;20048;-67
2022/04/25 09:55:31;;;;;;;8.25;4.90;;;11.60;60.00;;;;;;5031883;28;20055;-67
2022/04/25 09:57:57;;;;;;;9.07;4.38;;;11.60;59.90;;;;;;5046925;28;20120;-67
2022/04/25 10:00:36;;;;;;;5.28;4.22;;;11.60;59.60;;;;;;5043498;28;20060;-67
2022/04/25 10:03:03;;;;;;;10.13;5.55;;;11.60;60.40;;;;;;5026551;28;20044;-67
2022/04/25 10:05:49;;;;;;;9.32;5.05;;;11.60;61.20;;;;;;5022926;28;20045;-67
2022/04/25 10:08:17;;;;;;;7.60;4.38;;;11.80;60.60;;;;;;5021004;28;20048;-67
2022/04/25 10:10:47;;;;;;;8.70;5.20;;;11.70;60.90;;;;;;5031552;28;20489;-67
2022/04/25 10:13:13;;;;;;;7.45;4.38;;;11.70;61.00;;;;;;5033159;28;20799;-67
2022/04/25 10:15:40;;;;;;;9.80;4.32;;;11.60;60.90;;;;;;5013285;28;20379;-67
2022/04/25 10:18:07;;;;;;;8.73;4.43;;;11.50;60.60;;;;;;5000441;28;20072;-67
2022/04/25 10:20:36;;;;;;;8.90;4.23;;;11.40;61.10;;;;;;5031394;28;20553;-67
2022/04/25 10:23:09;;;;;;;8.15;4.85;;;11.30;61.30;;;;;;5032136;28;20348;-67
2022/04/25 10:25:36;;;;;;;6.90;3.92;;;11.30;61.50;;;;;;5032876;28;20044;-67
2022/04/25 10:28:06;;;;;;;9.15;4.78;;;11.20;62.10;;;;;;5043458;28;20120;-67
2022/04/25 10:30:36;;;;;;;6.43;4.53;;;11.20;62.40;;;;;;5038379;28;20037;-67
2022/04/25 10:33:17;;;;;;;8.15;4.88;;;11.20;62.20;;;;;;5041350;28;20068;-67
2022/04/25 10:35:44;;;;;;;8.68;5.88;;;11.20;62.70;;;;;;5034241;28;20044;-67
2022/04/25 10:38:48;;;;;;;7.47;4.75;;;11.30;62.80;;;;;;5043083;28;20408;-67
2022/04/25 10:44:18;;;;;;;8.32;4.57;;;11.50;62.90;;;;;;5038181;28;20040;-67
2022/04/25 10:47:05;;;;;;;10.68;4.70;;;11.60;62.60;;;;;;5045136;28;20051;-67
2022/04/25 10:49:34;;;;;;;7.50;4.22;;;11.80;62.40;;;;;;5032058;28;20048;-67
2022/04/25 10:52:00;;;;;;;10.93;4.57;;;12.10;62.20;;;;;;5040398;28;20055;-68
2022/04/25 10:54:30;;;;;;;7.33;4.70;;;12.40;61.10;;;;;;5044474;28;20768;-67
2022/04/25 10:57:16;;;;;;;7.80;4.17;;;12.60;60.60;;;;;;5040197;28;21207;-67
2022/04/25 10:59:42;;;;;;;9.10;3.60;;;13.00;61.20;;;;;;5043328;28;20310;-67
2022/04/25 11:02:23;;;;;;;5.37;3.40;;;13.20;60.10;;;;;;5047525;28;20279;-68
2022/04/25 11:05:11;;;;;;;6.80;3.17;;;13.30;58.50;;;;;;5034388;28;20284;-68
2022/04/25 11:07:38;;;;;;;4.67;2.70;;;13.30;57.50;;;;;;5038558;28;20286;-68
2022/04/25 11:10:05;;;;;;;10.07;3.27;;;13.30;57.70;;;;;;5039155;28;20279;-68
2022/04/25 11:12:56;;;;;;;7.47;3.33;;;13.30;58.00;;;;;;5024900;28;20311;-68
2022/04/25 11:15:44;;;;;;;6.60;3.30;;;13.30;58.00;;;;;;5037303;28;20807;-68
2022/04/25 11:18:35;;;;;;;8.13;3.47;;;13.30;58.60;;;;;;5031445;28;20276;-68
2022/04/25 11:21:05;;;;;;;7.23;3.30;;;13.20;58.80;;;;;;5052895;28;20306;-68
2022/04/25 11:23:43;;;;;;;8.67;3.20;;;13.30;59.20;;;;;;5043646;28;20283;-68
2022/04/25 11:26:11;;;;;;;6.97;3.30;;;13.30;58.30;;;;;;5049604;28;20760;-68
2022/04/25 11:28:56;;;;;;;8.03;3.37;;;13.30;58.30;;;;;;5042774;28;20368;-67
2022/04/25 11:31:23;;;;;;;9.17;3.50;;;13.30;58.40;;;;;;5052483;28;20762;-67
2022/04/25 11:33:51;;;;;;;9.23;4.00;;;13.20;58.00;;;;;;5038633;28;20307;-68
2022/04/25 11:36:21;;;;;;;8.50;3.47;;;13.30;57.80;;;;;;5040225;28;20275;-68
2022/04/25 11:41:36;;;;;;;6.70;3.43;;;13.30;58.00;;;;;;5042812;28;20287;-68
2022/04/25 11:44:03;;;;;;;8.77;3.83;;;13.30;58.90;;;;;;5025827;28;20287;-68
2022/04/25 11:46:32;;;;;;;13.33;4.23;;;13.50;58.80;;;;;;5048796;28;20279;-68
2022/04/25 11:48:58;;;;;;;7.97;3.30;;;13.70;58.30;;;;;;5028148;28;20645;-68
2022/04/25 11:51:34;;;;;;;7.13;3.50;;;14.00;57.20;;;;;;5048562;28;20767;-68
2022/04/25 11:54:04;;;;;;;7.83;3.10;;;14.30;56.60;;;;;;5032908;28;20381;-68
2022/04/25 11:56:32;;;;;;;4.53;3.00;;;14.40;56.00;;;;;;5032087;28;20649;-68
2022/04/25 11:58:59;;;;;;;9.30;3.23;;;14.60;54.60;;;;;;5049869;28;20373;-68
2022/04/25 12:01:38;;;;;;;6.87;3.13;;;14.50;55.40;;;;;;5037706;28;20310;-68
2022/04/25 12:04:18;;;;;;;10.00;3.30;;;14.60;55.40;;;;;;5054174;28;20369;-68
2022/04/25 12:06:53;;;;;;;11.07;4.00;;;14.60;55.10;;;;;;5038346;28;20282;-68
2022/04/25 12:17:48;;;;;;;10.25;3.78;;;14.20;56.20;;;;;;5047437;28;20283;-68
2022/04/25 12:20:16;;;;;;;13.55;4.40;;;14.10;56.30;;;;;;5016367;28;20064;-68
2022/04/25 12:22:55;;;;;;;8.27;3.60;;;14.00;56.90;;;;;;5054734;28;20041;-68
2022/04/25 12:25:24;;;;;;;7.63;3.70;;;14.00;56.60;;;;;;5026543;28;20840;-68
2022/04/25 12:28:07;;;;;;;8.27;4.53;;;13.80;57.00;;;;;;5054801;28;20282;-68
2022/04/25 12:30:58;;;;;;;10.57;3.90;;;13.60;57.60;;;;;;5041420;28;20291;-68
2022/04/25 12:33:39;;;;;;;10.27;4.33;;;13.60;57.60;;;;;;5048627;28;20806;-68
2022/04/25 12:36:22;;;;;;;10.27;4.40;;;13.40;57.70;;;;;;5036605;28;20687;-68
2022/04/25 12:38:59;;;;;;;6.93;3.60;;;13.30;58.20;;;;;;5023481;28;20280;-68
2022/04/25 12:41:32;;;;;;;8.30;3.50;;;13.30;58.20;;;;;;5046168;28;20279;-68
2022/04/25 12:44:11;;;;;;;5.93;3.43;;;13.20;58.20;;;;;;5024715;28;20341;-68
2022/04/25 12:46:44;;;;;;;9.70;4.33;;;13.30;58.10;;;;;;5035477;28;20323;-68
2022/04/25 12:49:43;;;;;;;7.37;3.60;;;13.40;57.70;;;;;;5036435;28;20307;-68
2022/04/25 12:52:10;;;;;;;8.13;4.00;;;13.40;57.00;;;;;;5038334;28;20290;-68
2022/04/25 12:54:42;;;;;;;8.43;4.00;;;13.40;57.30;;;;;;5029796;28;20299;-68
2022/04/25 12:57:18;;;;;;;7.50;3.60;;;13.40;57.50;;;;;;5047362;28;20287;-68
2022/04/25 12:59:45;;;;;;;6.40;3.10;;;13.40;57.50;;;;;;5049988;28;20357;-68
2022/04/25 13:02:17;;;;;;;5.73;3.10;;;13.40;57.30;;;;;;5033257;28;20282;-68
2022/04/25 13:04:58;;;;;;;8.57;3.60;;;13.50;56.90;;;;;;5033702;28;20836;-68
2022/04/25 13:07:30;;;;;;;7.83;3.07;;;13.50;57.20;;;;;;5048225;28;20832;-68
2022/04/25 13:09:57;;;;;;;8.60;3.90;;;13.50;56.60;;;;;;5047268;28;20718;-68
2022/04/25 13:12:30;;;;;;;7.40;3.67;;;13.50;56.90;;;;;;5049135;28;20307;-68
2022/04/25 13:14:56;;;;;;;6.13;3.70;;;13.40;57.00;;;;;;5046932;28;20286;-68
2022/04/25 13:17:21;;;;;;;5.60;3.43;;;13.40;57.30;;;;;;5035293;28;20309;-68
2022/04/25 13:19:47;;;;;;;8.40;3.50;;;13.50;57.40;;;;;;5047167;28;20033;-68
2022/04/25 13:22:13;;;;;;;7.37;3.57;;;13.40;57.60;;;;;;5030228;28;20114;-68
2022/04/25 13:24:38;;;;;;;11.43;3.80;;;13.50;56.90;;;;;;5019512;28;20052;-68
2022/04/25 13:27:07;;;;;;;9.30;3.47;;;13.40;57.00;;;;;;5028134;28;20075;-68
2022/04/25 13:29:34;;;;;;;5.97;3.67;;;13.50;56.70;;;;;;5026555;28;20037;-68